createdAt,value
2018-12-16T00:04:49.835Z,8.23
2018-12-16T00:09:48.192Z,6.33
2018-12-16T00:14:49.864Z,11.00
2018-12-16T00:19:51.952Z,7.60
2018-12-16T00:25:03.045Z,9.13
2018-12-16T00:30:06.562Z,9.33
2018-12-16T00:35:08.235Z,6.47
2018-12-16T00:40:10.320Z,10.77
2018-12-16T00:45:12.186Z,10.40
2018-12-16T00:50:13.938Z,8.33
2018-12-16T00:55:15.659Z,9.03
2018-12-16T01:00:17.410Z,9.83
2018-12-16T01:05:19.529Z,8.67
2018-12-16T01:10:21.410Z,9.93
2018-12-16T01:15:23.624Z,8.00
2018-12-16T01:20:25.579Z,5.57
2018-12-16T01:25:27.277Z,8.00
2018-12-16T01:30:29.336Z,11.53
2018-12-16T01:35:31.421Z,8.13
2018-12-16T01:40:33.106Z,9.60
2018-12-16T01:45:35.168Z,8.93
2018-12-16T01:50:36.875Z,8.37
2018-12-16T01:55:38.575Z,11.43
2018-12-16T02:00:41.085Z,9.80
2018-12-16T02:05:42.976Z,11.07
2018-12-16T02:10:46.124Z,7.80
2018-12-16T02:15:48.019Z,7.30
2018-12-16T02:20:50.727Z,7.40
2018-12-16T02:26:34.177Z,9.13
2018-12-16T02:31:38.104Z,7.23
2018-12-16T02:36:40.210Z,9.40
2018-12-16T02:41:42.283Z,14.20
2018-12-16T02:46:44.185Z,11.53
2018-12-16T02:51:45.861Z,9.27
2018-12-16T02:56:47.940Z,15.53
2018-12-16T03:01:49.616Z,11.77
2018-12-16T03:06:52.143Z,13.50
2018-12-16T03:11:54.796Z,8.87
2018-12-16T03:16:56.674Z,15.33
2018-12-16T03:21:59.154Z,11.63
2018-12-16T03:27:01.776Z,7.53
2018-12-16T03:32:03.589Z,15.00
2018-12-16T03:37:05.875Z,13.83
2018-12-16T03:42:08.351Z,12.30
2018-12-16T03:47:11.594Z,10.60
2018-12-16T03:52:13.463Z,13.07
2018-12-16T03:57:15.144Z,12.40
2018-12-16T04:02:17.067Z,17.33
2018-12-16T04:07:19.021Z,7.73
2018-12-16T04:12:21.239Z,14.20
2018-12-16T04:17:23.535Z,19.67
2018-12-16T04:22:25.446Z,14.10
2018-12-16T04:27:27.516Z,6.80
2018-12-16T04:32:29.804Z,13.57
2018-12-16T04:37:31.885Z,16.40
2018-12-16T04:42:33.559Z,17.00
2018-12-16T04:47:35.230Z,21.83
2018-12-16T04:52:36.906Z,17.10
2018-12-16T04:57:39.198Z,12.40
2018-12-16T05:02:41.077Z,11.63
2018-12-16T05:07:44.591Z,18.87
2018-12-16T05:12:46.473Z,16.67
2018-12-16T05:17:48.558Z,10.13
2018-12-16T05:22:50.438Z,17.53
2018-12-16T05:27:52.103Z,16.93
2018-12-16T05:32:53.978Z,14.10
2018-12-16T05:37:56.272Z,13.77
2018-12-16T05:42:58.764Z,13.53
2018-12-16T05:48:00.641Z,13.87
2018-12-16T05:53:02.726Z,9.87
2018-12-16T05:58:04.605Z,13.97
2018-12-16T06:03:06.686Z,15.67
2018-12-16T06:08:08.962Z,24.50
2018-12-16T06:13:11.056Z,10.83
2018-12-16T06:18:12.709Z,11.47
2018-12-16T06:23:14.813Z,19.23
2018-12-16T06:28:16.793Z,16.07
2018-12-16T06:33:18.776Z,15.80
2018-12-16T06:38:20.450Z,14.80
2018-12-16T06:43:22.531Z,16.17
2018-12-16T06:48:24.413Z,12.63
2018-12-16T06:53:26.492Z,17.23
2018-12-16T06:58:28.166Z,14.53
2018-12-16T07:03:30.248Z,12.07
2018-12-16T07:08:32.332Z,13.53
2018-12-16T07:13:35.654Z,16.93
2018-12-16T07:18:37.730Z,25.00
2018-12-16T07:23:40.222Z,17.07
2018-12-16T07:28:42.305Z,19.77
2018-12-16T07:33:44.630Z,19.07
2018-12-16T07:38:46.994Z,17.47
2018-12-16T07:43:49.172Z,23.00
2018-12-16T07:48:51.277Z,15.80
2018-12-16T07:53:53.544Z,15.37
2018-12-16T07:58:55.645Z,21.27
2018-12-16T08:03:57.503Z,13.47
2018-12-16T08:08:59.790Z,16.23
2018-12-16T08:14:02.078Z,18.00
2018-12-16T08:19:06.990Z,14.33
2018-12-16T08:24:08.358Z,23.93
2018-12-16T08:29:10.379Z,18.23
2018-12-16T08:34:12.054Z,13.10
2018-12-16T08:39:13.728Z,13.60
2018-12-16T08:44:15.404Z,12.70
2018-12-16T08:49:17.490Z,19.30
2018-12-16T08:54:19.536Z,22.43
2018-12-16T08:59:21.853Z,15.10
2018-12-16T09:04:24.140Z,13.60
2018-12-16T09:09:26.367Z,20.13
2018-12-16T09:14:28.922Z,7.33
2018-12-16T09:19:31.005Z,17.70
2018-12-16T09:24:37.199Z,25.27
2018-12-16T09:29:37.630Z,25.00
2018-12-16T09:34:39.282Z,20.77
2018-12-16T09:39:41.194Z,15.67
2018-12-16T09:44:43.581Z,19.37
2018-12-16T09:49:45.356Z,22.77
2018-12-16T09:54:47.035Z,16.13
2018-12-16T09:59:49.079Z,14.77
2018-12-16T10:04:53.040Z,19.23
2018-12-16T10:09:55.594Z,21.40
2018-12-16T10:14:57.714Z,12.93
2018-12-16T10:19:59.607Z,15.80
2018-12-16T10:25:07.711Z,21.03
2018-12-16T10:30:09.721Z,19.43
2018-12-16T10:35:11.599Z,20.90
2018-12-16T10:40:13.733Z,21.67
2018-12-16T10:45:15.772Z,17.40
2018-12-16T10:50:17.934Z,22.90
2018-12-16T10:55:19.734Z,25.90
2018-12-16T11:00:34.452Z,20.23
2018-12-16T11:05:37.625Z,22.87
2018-12-16T11:10:39.712Z,24.23
2018-12-16T11:15:41.450Z,15.13
2018-12-16T11:20:43.315Z,24.67
2018-12-16T11:25:45.880Z,25.83
2018-12-16T11:30:47.978Z,16.37
2018-12-16T11:35:49.651Z,25.37
2018-12-16T11:40:51.944Z,22.47
2018-12-16T11:45:53.627Z,17.77
2018-12-16T11:50:55.307Z,15.50
2018-12-16T11:55:57.397Z,16.53
2018-12-16T12:00:59.277Z,17.60
2018-12-16T12:06:00.952Z,24.83
2018-12-16T12:11:02.899Z,16.80
2018-12-16T12:16:05.170Z,18.53
2018-12-16T12:21:07.330Z,15.50
2018-12-16T12:26:10.459Z,19.97
2018-12-16T12:31:12.328Z,16.80
2018-12-16T12:36:14.211Z,16.13
2018-12-16T12:41:16.298Z,19.40
2018-12-16T12:46:18.594Z,17.43
2018-12-16T12:56:45.373Z,17.33
2018-12-16T13:01:47.263Z,18.30
2018-12-16T13:06:48.924Z,16.27
2018-12-16T13:11:51.039Z,21.17
2018-12-16T13:16:54.760Z,14.33
2018-12-16T13:21:57.641Z,19.27
2018-12-16T13:27:00.146Z,13.00
2018-12-16T13:32:02.010Z,13.43
2018-12-16T13:37:03.898Z,21.80
2018-12-16T13:42:05.981Z,15.73
2018-12-16T13:47:08.066Z,16.20
2018-12-16T13:52:10.149Z,14.60
2018-12-16T13:57:11.826Z,16.63
2018-12-16T14:02:13.496Z,18.20
2018-12-16T14:07:15.563Z,13.37
2018-12-16T14:12:17.253Z,16.10
2018-12-16T14:17:19.129Z,17.70
2018-12-16T14:22:21.212Z,16.43
2018-12-16T14:27:23.300Z,9.57
2018-12-16T14:32:24.953Z,15.80
2018-12-16T14:37:26.642Z,16.60
2018-12-16T14:42:43.883Z,13.83
2018-12-16T14:47:46.140Z,16.23
2018-12-16T14:52:47.844Z,20.87
2018-12-16T14:57:50.950Z,11.37
2018-12-16T15:02:53.239Z,20.40
2018-12-16T15:07:55.102Z,20.53
2018-12-16T15:12:56.992Z,15.60
2018-12-16T15:17:59.688Z,19.37
2018-12-16T15:23:05.047Z,21.57
2018-12-16T15:28:06.754Z,21.00
2018-12-16T15:33:09.420Z,17.27
2018-12-16T15:38:11.500Z,22.33
2018-12-16T15:43:13.176Z,24.50
2018-12-16T15:48:15.056Z,21.20
2018-12-16T15:53:17.544Z,19.03
2018-12-16T15:58:19.628Z,22.10
2018-12-16T16:03:21.711Z,20.80
2018-12-16T16:08:25.273Z,20.80
2018-12-16T16:13:27.108Z,20.57
2018-12-16T16:18:32.050Z,17.70
2018-12-16T16:23:33.911Z,22.87
2018-12-16T16:28:35.806Z,18.40
2018-12-16T16:33:37.688Z,22.63
2018-12-16T16:38:39.361Z,21.97
2018-12-16T16:43:41.244Z,17.67
2018-12-16T16:48:43.367Z,22.90
2018-12-16T16:53:45.860Z,16.17
2018-12-16T16:58:48.228Z,8.97
2018-12-16T17:03:50.800Z,22.47
2018-12-16T17:08:53.032Z,19.37
2018-12-16T17:13:56.190Z,23.17
2018-12-16T17:19:01.766Z,26.27
2018-12-16T17:24:03.641Z,17.87
2018-12-16T17:29:05.747Z,20.93
2018-12-16T17:34:07.807Z,21.73
2018-12-16T17:39:09.683Z,24.17
2018-12-16T17:44:20.287Z,18.23
2018-12-16T17:49:22.858Z,23.60
2018-12-16T17:54:26.539Z,16.33
2018-12-16T17:59:29.280Z,15.37
2018-12-16T18:04:31.162Z,26.70
2018-12-16T18:09:41.688Z,24.60
2018-12-16T18:14:43.925Z,21.80
2018-12-16T18:19:45.804Z,20.40
2018-12-16T18:24:47.892Z,21.67
2018-12-16T18:29:49.968Z,20.33
2018-12-16T18:35:06.814Z,19.93
2018-12-16T18:40:08.697Z,19.40
2018-12-16T18:45:10.779Z,20.70
2018-12-16T18:50:17.536Z,20.93
2018-12-16T18:55:19.793Z,21.27
2018-12-16T19:00:23.083Z,19.07
2018-12-16T19:05:25.867Z,21.40
2018-12-16T19:10:27.961Z,21.23
2018-12-16T19:15:33.015Z,22.27
2018-12-16T19:20:35.600Z,21.87
2018-12-16T19:25:40.345Z,20.83
2018-12-16T19:30:44.965Z,24.63
2018-12-16T19:35:48.253Z,22.40
2018-12-16T19:40:51.815Z,19.70
2018-12-16T19:45:56.664Z,21.30
2018-12-16T19:51:00.519Z,19.87
2018-12-16T19:56:03.836Z,23.30
2018-12-16T20:01:08.734Z,21.43
2018-12-16T20:06:17.490Z,21.83
2018-12-16T20:11:21.069Z,22.27
2018-12-16T20:16:24.580Z,17.50
2018-12-16T20:21:27.186Z,19.90
2018-12-16T20:26:30.907Z,20.97
2018-12-16T20:31:40.214Z,30.00
2018-12-16T20:36:42.423Z,20.23
2018-12-16T20:41:46.369Z,22.03
2018-12-16T20:46:48.328Z,20.37
2018-12-16T20:51:50.225Z,20.70
2018-12-16T20:56:52.306Z,22.60
2018-12-16T21:01:54.396Z,20.87
2018-12-16T21:06:56.277Z,22.23
2018-12-16T21:12:00.213Z,20.70
2018-12-16T21:17:08.261Z,20.80
2018-12-16T21:22:09.954Z,19.93
2018-12-16T21:27:12.058Z,21.53
2018-12-16T21:32:13.930Z,19.80
2018-12-16T21:37:16.238Z,22.30
2018-12-16T21:42:17.906Z,22.70
2018-12-16T21:47:20.015Z,30.00
2018-12-16T21:52:22.517Z,21.10
2018-12-16T21:57:24.402Z,21.90
2018-12-16T22:02:26.286Z,23.90
2018-12-16T22:07:28.376Z,23.40
2018-12-16T22:12:30.061Z,20.53
2018-12-16T22:17:31.952Z,21.60
2018-12-16T22:22:33.895Z,21.37
2018-12-16T22:27:40.204Z,22.47
2018-12-16T22:32:39.511Z,20.57
2018-12-16T22:37:41.455Z,22.10
2018-12-16T22:42:43.176Z,20.50
2018-12-16T22:47:44.880Z,21.50
2018-12-16T22:52:46.542Z,23.07
2018-12-16T22:57:48.652Z,19.87
2018-12-16T23:02:50.529Z,25.67
2018-12-16T23:07:52.141Z,21.17
2018-12-16T23:12:53.881Z,24.40
2018-12-16T23:17:55.954Z,26.70
2018-12-16T23:22:57.627Z,21.77
2018-12-16T23:27:59.310Z,21.83
2018-12-16T23:33:00.997Z,23.87
2018-12-16T23:38:03.070Z,25.90
2018-12-16T23:43:05.155Z,20.97
2018-12-16T23:48:07.028Z,23.20
2018-12-16T23:53:08.708Z,26.50
2018-12-16T23:58:10.376Z,24.13
